sensor_id;sensor_type;location;lat;lon;timestamp;pressure;altitude;pressure_sealevel;temperature;humidity
29417;BME280;28421;51.030;4.006;2023-05-20T00:01:00;102327.75;;;12.19;77.24
29417;BME280;28421;51.030;4.006;2023-05-20T00:03:25;102313.06;;;12.04;77.52
29417;BME280;28421;51.030;4.006;2023-05-20T00:05:51;102329.19;;;12.13;77.73
29417;BME280;28421;51.030;4.006;2023-05-20T00:08:17;102354.53;;;12.30;77.08
29417;BME280;28421;51.030;4.006;2023-05-20T00:10:43;102324.41;;;12.07;77.76
29417;BME280;28421;51.030;4.006;2023-05-20T00:13:10;102315.47;;;11.97;77.93
29417;BME280;28421;51.030;4.006;2023-05-20T00:15:35;102338.84;;;12.16;77.93
29417;BME280;28421;51.030;4.006;2023-05-20T00:18:01;102329.06;;;12.05;78.37
29417;BME280;28421;51.030;4.006;2023-05-20T00:20:28;102284.97;;;11.77;78.78
29417;BME280;28421;51.030;4.006;2023-05-20T00:22:53;102316.78;;;11.83;79.20
29417;BME280;28421;51.030;4.006;2023-05-20T00:25:19;102351.22;;;11.99;79.42
29417;BME280;28421;51.030;4.006;2023-05-20T00:27:44;102312.47;;;11.81;79.91
29417;BME280;28421;51.030;4.006;2023-05-20T00:30:11;102340.72;;;11.96;79.78
29417;BME280;28421;51.030;4.006;2023-05-20T00:32:37;102339.31;;;11.92;79.86
29417;BME280;28421;51.030;4.006;2023-05-20T00:35:03;102309.81;;;11.71;79.92
29417;BME280;28421;51.030;4.006;2023-05-20T00:37:28;102352.31;;;12.06;79.88
29417;BME280;28421;51.030;4.006;2023-05-20T00:39:54;102327.13;;;11.88;79.52
29417;BME280;28421;51.030;4.006;2023-05-20T00:44:46;102326.13;;;11.99;79.24
29417;BME280;28421;51.030;4.006;2023-05-20T00:47:14;102322.00;;;11.85;79.32
29417;BME280;28421;51.030;4.006;2023-05-20T00:49:40;102285.28;;;11.64;79.19
29417;BME280;28421;51.030;4.006;2023-05-20T00:52:06;102335.63;;;11.93;78.87
29417;BME280;28421;51.030;4.006;2023-05-20T00:54:32;102297.34;;;11.70;79.39
29417;BME280;28421;51.030;4.006;2023-05-20T00:56:58;102292.25;;;11.57;79.64
29417;BME280;28421;51.030;4.006;2023-05-20T00:59:24;102340.88;;;11.94;79.09
29417;BME280;28421;51.030;4.006;2023-05-20T01:01:51;102289.69;;;11.65;79.13
29417;BME280;28421;51.030;4.006;2023-05-20T01:04:16;102312.63;;;11.79;79.02
29417;BME280;28421;51.030;4.006;2023-05-20T01:06:43;102299.34;;;11.58;79.19
29417;BME280;28421;51.030;4.006;2023-05-20T01:09:10;102264.19;;;11.31;79.02
29417;BME280;28421;51.030;4.006;2023-05-20T01:11:47;102303.88;;;11.58;79.12
29417;BME280;28421;51.030;4.006;2023-05-20T01:14:16;102298.63;;;11.47;78.96
29417;BME280;28421;51.030;4.006;2023-05-20T01:16:44;102331.53;;;11.69;78.98
29417;BME280;28421;51.030;4.006;2023-05-20T01:19:30;102338.03;;;11.67;78.28
29417;BME280;28421;51.030;4.006;2023-05-20T01:22:01;102292.94;;;11.40;78.13
29417;BME280;28421;51.030;4.006;2023-05-20T01:24:30;102296.06;;;11.35;78.44
29417;BME280;28421;51.030;4.006;2023-05-20T01:26:55;102292.41;;;11.36;77.73
29417;BME280;28421;51.030;4.006;2023-05-20T01:29:23;102302.75;;;11.41;77.52
29417;BME280;28421;51.030;4.006;2023-05-20T01:31:50;102272.81;;;11.15;77.56
29417;BME280;28421;51.030;4.006;2023-05-20T01:34:17;102303.31;;;11.35;77.22
29417;BME280;28421;51.030;4.006;2023-05-20T01:36:44;102322.41;;;11.32;77.79
29417;BME280;28421;51.030;4.006;2023-05-20T01:39:12;102303.31;;;11.25;77.25
29417;BME280;28421;51.030;4.006;2023-05-20T01:41:38;102260.06;;;10.98;77.46
29417;BME280;28421;51.030;4.006;2023-05-20T01:44:05;102292.66;;;11.24;76.82
29417;BME280;28421;51.030;4.006;2023-05-20T01:46:32;102321.72;;;11.39;76.69
29417;BME280;28421;51.030;4.006;2023-05-20T01:48:59;102288.41;;;11.11;76.31
29417;BME280;28421;51.030;4.006;2023-05-20T01:51:24;102322.00;;;11.27;76.70
29417;BME280;28421;51.030;4.006;2023-05-20T01:53:50;102291.53;;;11.16;76.40
29417;BME280;28421;51.030;4.006;2023-05-20T01:56:16;102275.38;;;11.07;75.27
29417;BME280;28421;51.030;4.006;2023-05-20T01:58:41;102247.88;;;10.84;75.25
29417;BME280;28421;51.030;4.006;2023-05-20T02:01:07;102281.16;;;11.02;75.42
29417;BME280;28421;51.030;4.006;2023-05-20T02:03:32;102303.72;;;11.20;75.16
29417;BME280;28421;51.030;4.006;2023-05-20T02:05:58;102247.47;;;10.88;75.27
29417;BME280;28421;51.030;4.006;2023-05-20T02:08:23;102309.13;;;11.20;75.00
29417;BME280;28421;51.030;4.006;2023-05-20T02:10:49;102304.56;;;11.11;74.89
29417;BME280;28421;51.030;4.006;2023-05-20T02:13:14;102285.44;;;10.95;74.92
29417;BME280;28421;51.030;4.006;2023-05-20T02:15:41;102302.75;;;11.12;74.76
29417;BME280;28421;51.030;4.006;2023-05-20T02:18:06;102261.88;;;10.78;74.14
29417;BME280;28421;51.030;4.006;2023-05-20T02:20:35;102277.31;;;10.85;74.30
29417;BME280;28421;51.030;4.006;2023-05-20T02:23:01;102292.34;;;10.98;74.18
29417;BME280;28421;51.030;4.006;2023-05-20T02:25:30;102317.63;;;11.16;74.04
29417;BME280;28421;51.030;4.006;2023-05-20T02:27:56;102270.41;;;11.02;73.54
29417;BME280;28421;51.030;4.006;2023-05-20T02:30:21;102301.59;;;11.14;73.69
29417;BME280;28421;51.030;4.006;2023-05-20T02:32:46;102317.75;;;11.14;73.53
29417;BME280;28421;51.030;4.006;2023-05-20T02:35:12;102278.31;;;10.94;73.64
29417;BME280;28421;51.030;4.006;2023-05-20T02:37:38;102242.50;;;10.74;73.51
29417;BME280;28421;51.030;4.006;2023-05-20T02:40:04;102287.56;;;11.01;73.80
29417;BME280;28421;51.030;4.006;2023-05-20T02:42:30;102281.75;;;10.96;73.83
29417;BME280;28421;51.030;4.006;2023-05-20T02:44:56;102316.31;;;11.10;73.97
29417;BME280;28421;51.030;4.006;2023-05-20T02:47:24;102280.44;;;10.81;74.49
29417;BME280;28421;51.030;4.006;2023-05-20T02:49:49;102271.19;;;10.64;75.08
29417;BME280;28421;51.030;4.006;2023-05-20T02:52:15;102293.59;;;10.74;74.51
29417;BME280;28421;51.030;4.006;2023-05-20T02:54:41;102282.81;;;10.64;74.92
29417;BME280;28421;51.030;4.006;2023-05-20T02:57:06;102270.66;;;10.70;74.93
29417;BME280;28421;51.030;4.006;2023-05-20T02:59:32;102249.53;;;10.65;74.30
29417;BME280;28421;51.030;4.006;2023-05-20T03:01:57;102233.22;;;10.48;74.42
29417;BME280;28421;51.030;4.006;2023-05-20T03:04:23;102287.34;;;10.74;73.97
29417;BME280;28421;51.030;4.006;2023-05-20T03:06:50;102266.81;;;10.63;74.57
29417;BME280;28421;51.030;4.006;2023-05-20T03:09:17;102266.25;;;10.69;73.97
29417;BME280;28421;51.030;4.006;2023-05-20T03:11:44;102278.56;;;10.62;74.49
29417;BME280;28421;51.030;4.006;2023-05-20T03:14:11;102241.50;;;10.25;75.09
29417;BME280;28421;51.030;4.006;2023-05-20T03:16:37;102260.53;;;10.43;75.11
29417;BME280;28421;51.030;4.006;2023-05-20T03:19:02;102295.41;;;10.74;74.52
29417;BME280;28421;51.030;4.006;2023-05-20T03:21:28;102305.56;;;10.60;75.10
29417;BME280;28421;51.030;4.006;2023-05-20T03:23:53;102246.03;;;10.25;74.83
29417;BME280;28421;51.030;4.006;2023-05-20T03:26:19;102258.50;;;10.35;75.24
29417;BME280;28421;51.030;4.006;2023-05-20T03:28:45;102228.13;;;10.14;75.52
29417;BME280;28421;51.030;4.006;2023-05-20T03:31:11;102261.06;;;10.37;75.49
29417;BME280;28421;51.030;4.006;2023-05-20T03:33:37;102286.66;;;10.31;76.19
29417;BME280;28421;51.030;4.006;2023-05-20T03:36:03;102239.97;;;10.11;76.50
29417;BME280;28421;51.030;4.006;2023-05-20T03:38:29;102248.94;;;10.21;76.07
29417;BME280;28421;51.030;4.006;2023-05-20T03:40:54;102269.47;;;10.23;76.60
29417;BME280;28421;51.030;4.006;2023-05-20T03:43:20;102276.16;;;10.28;76.72
29417;BME280;28421;51.030;4.006;2023-05-20T03:45:46;102247.78;;;10.14;76.77
29417;BME280;28421;51.030;4.006;2023-05-20T03:48:12;102277.72;;;10.31;76.40
29417;BME280;28421;51.030;4.006;2023-05-20T03:50:38;102286.34;;;10.25;76.84
29417;BME280;28421;51.030;4.006;2023-05-20T03:53:04;102259.50;;;10.04;76.89
29417;BME280;28421;51.030;4.006;2023-05-20T03:55:36;102268.09;;;10.07;77.01
29417;BME280;28421;51.030;4.006;2023-05-20T03:58:03;102285.59;;;10.23;76.84
29417;BME280;28421;51.030;4.006;2023-05-20T04:00:30;102277.94;;;10.18;77.08
29417;BME280;28421;51.030;4.006;2023-05-20T04:02:57;102287.56;;;10.20;77.26
29417;BME280;28421;51.030;4.006;2023-05-20T04:05:23;102286.06;;;10.07;77.87
29417;BME280;28421;51.030;4.006;2023-05-20T04:07:49;102299.59;;;10.16;78.01
29417;BME280;28421;51.030;4.006;2023-05-20T04:10:18;102251.56;;;9.81;78.01
29417;BME280;28421;51.030;4.006;2023-05-20T04:12:43;102304.22;;;10.14;78.31
29417;BME280;28421;51.030;4.006;2023-05-20T04:15:09;102290.63;;;10.16;78.47
29417;BME280;28421;51.030;4.006;2023-05-20T04:17:47;102242.00;;;9.88;78.09
29417;BME280;28421;51.030;4.006;2023-05-20T04:20:13;102274.28;;;9.98;77.76
29417;BME280;28421;51.030;4.006;2023-05-20T04:22:38;102288.34;;;10.11;78.35
29417;BME280;28421;51.030;4.006;2023-05-20T04:25:04;102262.66;;;9.88;78.44
29417;BME280;28421;51.030;4.006;2023-05-20T04:27:30;102270.50;;;10.01;77.97
29417;BME280;28421;51.030;4.006;2023-05-20T04:29:58;102311.00;;;10.30;77.87
29417;BME280;28421;51.030;4.006;2023-05-20T04:32:24;102283.28;;;10.08;78.04
29417;BME280;28421;51.030;4.006;2023-05-20T04:34:52;102255.25;;;9.80;78.23
29417;BME280;28421;51.030;4.006;2023-05-20T04:37:19;102251.50;;;9.92;77.68
29417;BME280;28421;51.030;4.006;2023-05-20T04:39:45;102296.59;;;10.19;77.88
29417;BME280;28421;51.030;4.006;2023-05-20T04:42:13;102279.50;;;10.20;77.45
29417;BME280;28421;51.030;4.006;2023-05-20T04:44:38;102278.78;;;10.18;77.48
29417;BME280;28421;51.030;4.006;2023-05-20T04:47:04;102274.84;;;10.23;77.52
29417;BME280;28421;51.030;4.006;2023-05-20T04:49:35;102237.84;;;10.05;77.21
29417;BME280;28421;51.030;4.006;2023-05-20T04:52:01;102269.16;;;10.37;76.84
29417;BME280;28421;51.030;4.006;2023-05-20T04:54:26;102282.34;;;10.50;76.54
29417;BME280;28421;51.030;4.006;2023-05-20T04:56:52;102244.78;;;10.29;77.15
29417;BME280;28421;51.030;4.006;2023-05-20T04:59:18;102261.94;;;10.47;76.31
29417;BME280;28421;51.030;4.006;2023-05-20T05:01:43;102269.66;;;10.71;76.00
29417;BME280;28421;51.030;4.006;2023-05-20T05:04:09;102274.50;;;10.87;75.89
29417;BME280;28421;51.030;4.006;2023-05-20T05:06:35;102237.91;;;10.55;75.77
29417;BME280;28421;51.030;4.006;2023-05-20T05:09:01;102266.28;;;10.88;75.60
29417;BME280;28421;51.030;4.006;2023-05-20T05:11:27;102257.53;;;10.96;75.17
29417;BME280;28421;51.030;4.006;2023-05-20T05:13:54;102259.38;;;10.95;75.19
29417;BME280;28421;51.030;4.006;2023-05-20T05:16:22;102261.47;;;11.11;74.94
29417;BME280;28421;51.030;4.006;2023-05-20T05:18:47;102263.19;;;11.12;74.50
29417;BME280;28421;51.030;4.006;2023-05-20T05:21:13;102226.06;;;10.97;74.79
29417;BME280;28421;51.030;4.006;2023-05-20T05:23:39;102277.50;;;11.42;74.32
29417;BME280;28421;51.030;4.006;2023-05-20T05:26:07;102296.34;;;11.52;74.64
29417;BME280;28421;51.030;4.006;2023-05-20T05:28:32;102273.81;;;11.53;74.18
29417;BME280;28421;51.030;4.006;2023-05-20T05:30:58;102274.97;;;11.50;73.83
29417;BME280;28421;51.030;4.006;2023-05-20T05:33:24;102280.59;;;11.66;74.07
29417;BME280;28421;51.030;4.006;2023-05-20T05:35:51;102294.38;;;11.83;73.76
29417;BME280;28421;51.030;4.006;2023-05-20T05:38:16;102265.28;;;11.67;72.99
29417;BME280;28421;51.030;4.006;2023-05-20T05:40:42;102253.38;;;11.69;73.18
29417;BME280;28421;51.030;4.006;2023-05-20T05:43:08;102256.03;;;11.79;73.79
29417;BME280;28421;51.030;4.006;2023-05-20T05:45:34;102219.75;;;11.74;73.18
29417;BME280;28421;51.030;4.006;2023-05-20T05:48:00;102259.38;;;12.10;72.88
29417;BME280;28421;51.030;4.006;2023-05-20T05:50:25;102246.44;;;12.14;71.79
29417;BME280;28421;51.030;4.006;2023-05-20T05:52:51;102266.16;;;12.14;71.64
29417;BME280;28421;51.030;4.006;2023-05-20T05:55:17;102233.19;;;11.93;71.17
29417;BME280;28421;51.030;4.006;2023-05-20T05:57:43;102259.94;;;12.14;71.34
29417;BME280;28421;51.030;4.006;2023-05-20T06:00:11;102249.13;;;12.24;71.38
29417;BME280;28421;51.030;4.006;2023-05-20T06:02:44;102265.06;;;12.44;71.22
29417;BME280;28421;51.030;4.006;2023-05-20T06:05:10;102273.03;;;12.64;71.09
29417;BME280;28421;51.030;4.006;2023-05-20T06:07:36;102258.41;;;12.66;70.85
29417;BME280;28421;51.030;4.006;2023-05-20T06:10:02;102284.56;;;12.84;70.28
29417;BME280;28421;51.030;4.006;2023-05-20T06:12:27;102242.38;;;12.65;69.28
29417;BME280;28421;51.030;4.006;2023-05-20T06:14:53;102228.09;;;12.73;69.71
29417;BME280;28421;51.030;4.006;2023-05-20T06:17:19;102238.69;;;12.84;69.22
29417;BME280;28421;51.030;4.006;2023-05-20T06:19:46;102239.31;;;12.96;68.65
29417;BME280;28421;51.030;4.006;2023-05-20T06:22:12;102253.50;;;13.15;69.05
29417;BME280;28421;51.030;4.006;2023-05-20T06:24:38;102212.69;;;12.83;67.11
29417;BME280;28421;51.030;4.006;2023-05-20T06:27:05;102227.75;;;13.03;68.11
29417;BME280;28421;51.030;4.006;2023-05-20T06:29:31;102253.53;;;13.33;67.71
29417;BME280;28421;51.030;4.006;2023-05-20T06:31:56;102231.19;;;13.13;67.20
29417;BME280;28421;51.030;4.006;2023-05-20T06:34:22;102263.41;;;13.42;67.08
29417;BME280;28421;51.030;4.006;2023-05-20T06:36:48;102194.03;;;13.07;66.40
29417;BME280;28421;51.030;4.006;2023-05-20T06:39:13;102230.66;;;13.46;67.04
29417;BME280;28421;51.030;4.006;2023-05-20T06:41:42;102216.94;;;13.39;66.87
29417;BME280;28421;51.030;4.006;2023-05-20T06:44:09;102225.56;;;13.60;66.58
29417;BME280;28421;51.030;4.006;2023-05-20T06:46:51;102227.91;;;13.63;65.42
29417;BME280;28421;51.030;4.006;2023-05-20T06:49:16;102235.94;;;13.73;64.89
29417;BME280;28421;51.030;4.006;2023-05-20T06:51:42;102223.28;;;13.74;65.99
29417;BME280;28421;51.030;4.006;2023-05-20T06:54:08;102237.50;;;13.84;65.38
29417;BME280;28421;51.030;4.006;2023-05-20T06:56:34;102246.56;;;14.01;66.07
29417;BME280;28421;51.030;4.006;2023-05-20T06:59:00;102222.88;;;13.95;64.14
29417;BME280;28421;51.030;4.006;2023-05-20T07:01:26;102194.13;;;13.85;65.28
29417;BME280;28421;51.030;4.006;2023-05-20T07:03:51;102216.19;;;14.07;66.45
29417;BME280;28421;51.030;4.006;2023-05-20T07:06:17;102220.84;;;14.23;66.15
29417;BME280;28421;51.030;4.006;2023-05-20T07:08:43;102203.25;;;14.27;63.98
29417;BME280;28421;51.030;4.006;2023-05-20T07:11:09;102206.28;;;14.24;64.27
29417;BME280;28421;51.030;4.006;2023-05-20T07:13:36;102221.63;;;14.49;64.43
29417;BME280;28421;51.030;4.006;2023-05-20T07:16:02;102189.63;;;14.45;62.80
29417;BME280;28421;51.030;4.006;2023-05-20T07:18:28;102201.88;;;14.57;63.48
29417;BME280;28421;51.030;4.006;2023-05-20T07:20:55;102208.13;;;14.65;63.34
29417;BME280;28421;51.030;4.006;2023-05-20T07:23:33;102197.13;;;14.67;63.78
29417;BME280;28421;51.030;4.006;2023-05-20T07:25:59;102221.41;;;15.01;63.78
29417;BME280;28421;51.030;4.006;2023-05-20T07:28:25;102191.78;;;15.00;62.84
29417;BME280;28421;51.030;4.006;2023-05-20T07:30:50;102186.03;;;15.19;62.04
29417;BME280;28421;51.030;4.006;2023-05-20T07:33:22;102199.56;;;15.35;62.14
29417;BME280;28421;51.030;4.006;2023-05-20T07:35:48;102169.59;;;15.21;60.80
29417;BME280;28421;51.030;4.006;2023-05-20T07:38:14;102193.63;;;15.40;61.02
29417;BME280;28421;51.030;4.006;2023-05-20T07:40:41;102200.38;;;15.60;60.81
29417;BME280;28421;51.030;4.006;2023-05-20T07:43:08;102222.53;;;15.97;60.05
29417;BME280;28421;51.030;4.006;2023-05-20T07:45:35;102196.09;;;15.90;59.70
29417;BME280;28421;51.030;4.006;2023-05-20T07:48:02;102205.91;;;16.00;58.10
29417;BME280;28421;51.030;4.006;2023-05-20T07:50:28;102176.28;;;15.90;58.63
29417;BME280;28421;51.030;4.006;2023-05-20T07:52:53;102174.00;;;16.10;59.66
29417;BME280;28421;51.030;4.006;2023-05-20T07:55:19;102188.03;;;16.22;60.03
29417;BME280;28421;51.030;4.006;2023-05-20T07:57:45;102167.69;;;16.18;58.54
29417;BME280;28421;51.030;4.006;2023-05-20T08:00:11;102142.28;;;16.10;56.60
29417;BME280;28421;51.030;4.006;2023-05-20T08:02:42;102180.81;;;16.37;56.91
29417;BME280;28421;51.030;4.006;2023-05-20T08:05:10;102189.41;;;16.49;56.85
29417;BME280;28421;51.030;4.006;2023-05-20T08:07:36;102137.72;;;16.34;56.55
29417;BME280;28421;51.030;4.006;2023-05-20T08:10:02;102186.78;;;16.63;55.87
29417;BME280;28421;51.030;4.006;2023-05-20T08:12:28;102184.69;;;16.74;56.66
29417;BME280;28421;51.030;4.006;2023-05-20T08:14:53;102157.53;;;16.74;57.14
29417;BME280;28421;51.030;4.006;2023-05-20T08:17:19;102195.38;;;17.21;54.18
29417;BME280;28421;51.030;4.006;2023-05-20T08:19:45;102148.22;;;16.91;53.80
29417;BME280;28421;51.030;4.006;2023-05-20T08:22:12;102162.72;;;17.06;54.77
29417;BME280;28421;51.030;4.006;2023-05-20T08:24:38;102193.25;;;17.31;55.37
29417;BME280;28421;51.030;4.006;2023-05-20T08:27:03;102147.66;;;17.19;55.48
29417;BME280;28421;51.030;4.006;2023-05-20T08:29:30;102165.78;;;17.41;54.35
29417;BME280;28421;51.030;4.006;2023-05-20T08:31:57;102184.97;;;17.62;54.57
29417;BME280;28421;51.030;4.006;2023-05-20T08:34:24;102142.94;;;17.50;52.26
29417;BME280;28421;51.030;4.006;2023-05-20T08:36:50;102154.38;;;17.60;52.97
29417;BME280;28421;51.030;4.006;2023-05-20T08:39:16;102175.22;;;17.68;52.04
29417;BME280;28421;51.030;4.006;2023-05-20T08:41:45;102130.28;;;17.43;51.33
29417;BME280;28421;51.030;4.006;2023-05-20T08:44:12;102163.34;;;17.84;52.13
29417;BME280;28421;51.030;4.006;2023-05-20T08:46:39;102160.78;;;17.82;50.14
29417;BME280;28421;51.030;4.006;2023-05-20T08:49:06;102157.69;;;17.85;49.65
29417;BME280;28421;51.030;4.006;2023-05-20T08:51:32;102165.75;;;18.08;49.74
29417;BME280;28421;51.030;4.006;2023-05-20T08:53:58;102156.66;;;18.01;49.87
29417;BME280;28421;51.030;4.006;2023-05-20T08:56:24;102149.31;;;18.02;49.63
29417;BME280;28421;51.030;4.006;2023-05-20T08:58:51;102109.84;;;17.76;49.25
29417;BME280;28421;51.030;4.006;2023-05-20T09:01:18;102117.72;;;18.01;51.46
29417;BME280;28421;51.030;4.006;2023-05-20T09:03:44;102140.22;;;18.09;49.17
29417;BME280;28421;51.030;4.006;2023-05-20T09:06:15;102119.06;;;18.11;48.67
29417;BME280;28421;51.030;4.006;2023-05-20T09:08:40;102136.69;;;18.30;49.07
29417;BME280;28421;51.030;4.006;2023-05-20T09:11:08;102153.09;;;18.37;49.38
29417;BME280;28421;51.030;4.006;2023-05-20T09:13:34;102104.06;;;18.16;47.23
29417;BME280;28421;51.030;4.006;2023-05-20T09:16:00;102095.97;;;18.22;46.68
29417;BME280;28421;51.030;4.006;2023-05-20T09:18:26;102155.25;;;18.78;47.92
29417;BME280;28421;51.030;4.006;2023-05-20T09:20:52;102119.78;;;18.35;45.26
29417;BME280;28421;51.030;4.006;2023-05-20T09:23:18;102142.38;;;18.50;46.25
29417;BME280;28421;51.030;4.006;2023-05-20T09:25:48;102151.44;;;18.72;47.18
29417;BME280;28421;51.030;4.006;2023-05-20T09:28:18;102139.94;;;18.77;48.10
29417;BME280;28421;51.030;4.006;2023-05-20T09:30:44;102116.63;;;18.74;47.44
29417;BME280;28421;51.030;4.006;2023-05-20T09:33:12;102131.66;;;19.13;47.58
29417;BME280;28421;51.030;4.006;2023-05-20T09:35:38;102118.63;;;19.08;45.91
29417;BME280;28421;51.030;4.006;2023-05-20T09:38:04;102131.53;;;19.21;45.66
29417;BME280;28421;51.030;4.006;2023-05-20T09:40:32;102140.00;;;19.33;46.01
29417;BME280;28421;51.030;4.006;2023-05-20T09:43:01;102138.16;;;19.40;46.27
29417;BME280;28421;51.030;4.006;2023-05-20T09:45:27;102101.22;;;19.37;47.04
29417;BME280;28421;51.030;4.006;2023-05-20T09:47:54;102127.09;;;19.48;46.83
29417;BME280;28421;51.030;4.006;2023-05-20T09:50:21;102123.19;;;19.57;45.48
29417;BME280;28421;51.030;4.006;2023-05-20T09:52:48;102078.31;;;19.32;44.97
29417;BME280;28421;51.030;4.006;2023-05-20T09:55:19;102079.88;;;19.48;45.24
29417;BME280;28421;51.030;4.006;2023-05-20T09:57:45;102087.81;;;19.43;44.39
29417;BME280;28421;51.030;4.006;2023-05-20T10:00:12;102058.88;;;19.42;45.91
29417;BME280;28421;51.030;4.006;2023-05-20T10:02:50;102086.09;;;19.70;43.08
29417;BME280;28421;51.030;4.006;2023-05-20T10:05:21;102074.56;;;19.68;44.98
29417;BME280;28421;51.030;4.006;2023-05-20T10:10:47;102108.03;;;19.83;43.41
29417;BME280;28421;51.030;4.006;2023-05-20T10:13:45;102097.44;;;19.67;44.11
29417;BME280;28421;51.030;4.006;2023-05-20T10:16:53;102078.91;;;19.27;44.01
29417;BME280;28421;51.030;4.006;2023-05-20T10:19:31;102075.75;;;19.58;44.49
29417;BME280;28421;51.030;4.006;2023-05-20T10:22:01;102097.06;;;19.76;43.58
29417;BME280;28421;51.030;4.006;2023-05-20T10:24:35;102073.94;;;19.72;42.78
29417;BME280;28421;51.030;4.006;2023-05-20T10:27:03;102099.19;;;19.81;42.83
29417;BME280;28421;51.030;4.006;2023-05-20T10:29:43;102061.81;;;19.75;43.51
29417;BME280;28421;51.030;4.006;2023-05-20T10:32:09;102068.28;;;19.74;44.48
29417;BME280;28421;51.030;4.006;2023-05-20T10:34:46;102053.34;;;19.63;41.12
29417;BME280;28421;51.030;4.006;2023-05-20T10:37:43;102070.44;;;19.85;43.54
29417;BME280;28421;51.030;4.006;2023-05-20T10:40:14;102032.69;;;19.95;44.26
29417;BME280;28421;51.030;4.006;2023-05-20T10:42:41;102057.47;;;20.00;42.68
29417;BME280;28421;51.030;4.006;2023-05-20T10:45:08;102025.59;;;20.07;42.57
29417;BME280;28421;51.030;4.006;2023-05-20T10:47:34;102072.50;;;20.44;42.09
29417;BME280;28421;51.030;4.006;2023-05-20T10:50:00;102019.00;;;19.89;41.62
29417;BME280;28421;51.030;4.006;2023-05-20T10:52:38;102029.41;;;20.26;44.80
29417;BME280;28421;51.030;4.006;2023-05-20T10:55:04;102022.69;;;20.29;42.62
29417;BME280;28421;51.030;4.006;2023-05-20T10:57:30;102026.44;;;20.15;41.07
29417;BME280;28421;51.030;4.006;2023-05-20T10:59:56;102039.88;;;20.23;41.16
29417;BME280;28421;51.030;4.006;2023-05-20T11:02:23;102026.44;;;20.28;42.19
29417;BME280;28421;51.030;4.006;2023-05-20T11:04:55;102020.13;;;20.07;42.22
29417;BME280;28421;51.030;4.006;2023-05-20T11:07:27;102001.66;;;20.23;42.18
29417;BME280;28421;51.030;4.006;2023-05-20T11:09:57;102020.13;;;20.27;42.09
29417;BME280;28421;51.030;4.006;2023-05-20T11:12:24;102033.47;;;20.57;41.61
29417;BME280;28421;51.030;4.006;2023-05-20T11:14:50;102032.63;;;20.70;42.58
29417;BME280;28421;51.030;4.006;2023-05-20T11:17:17;102031.97;;;20.68;41.64
29417;BME280;28421;51.030;4.006;2023-05-20T11:19:43;102030.25;;;20.47;40.84
29417;BME280;28421;51.030;4.006;2023-05-20T11:22:09;102046.72;;;20.53;41.36
29417;BME280;28421;51.030;4.006;2023-05-20T11:24:35;102022.31;;;20.78;41.90
29417;BME280;28421;51.030;4.006;2023-05-20T11:27:01;102019.56;;;20.92;41.73
29417;BME280;28421;51.030;4.006;2023-05-20T11:29:27;102005.44;;;21.08;41.72
29417;BME280;28421;51.030;4.006;2023-05-20T11:31:53;102005.41;;;21.15;42.40
29417;BME280;28421;51.030;4.006;2023-05-20T11:34:20;102016.16;;;21.36;41.83
29417;BME280;28421;51.030;4.006;2023-05-20T11:36:46;102017.94;;;21.62;41.22
29417;BME280;28421;51.030;4.006;2023-05-20T11:39:13;102001.38;;;21.30;41.33
29417;BME280;28421;51.030;4.006;2023-05-20T11:41:41;102025.59;;;21.40;40.77
29417;BME280;28421;51.030;4.006;2023-05-20T11:44:10;102021.41;;;21.18;39.72
29417;BME280;28421;51.030;4.006;2023-05-20T11:46:43;102001.91;;;20.88;39.58
29417;BME280;28421;51.030;4.006;2023-05-20T11:49:09;102026.25;;;21.16;42.61
29417;BME280;28421;51.030;4.006;2023-05-20T11:51:36;101992.38;;;21.10;41.71
29417;BME280;28421;51.030;4.006;2023-05-20T11:54:03;101981.00;;;21.33;41.89
29417;BME280;28421;51.030;4.006;2023-05-20T11:56:32;101961.31;;;20.91;41.12
29417;BME280;28421;51.030;4.006;2023-05-20T11:59:01;102024.41;;;21.03;39.29
29417;BME280;28421;51.030;4.006;2023-05-20T12:01:32;101982.28;;;21.10;43.89
29417;BME280;28421;51.030;4.006;2023-05-20T12:03:58;101971.16;;;21.12;39.55
29417;BME280;28421;51.030;4.006;2023-05-20T12:06:24;102010.25;;;21.26;39.42
29417;BME280;28421;51.030;4.006;2023-05-20T12:08:49;101988.16;;;21.21;41.19
29417;BME280;28421;51.030;4.006;2023-05-20T12:11:15;101973.91;;;21.05;41.56
29417;BME280;28421;51.030;4.006;2023-05-20T12:13:41;101970.38;;;20.52;42.49
29417;BME280;28421;51.030;4.006;2023-05-20T12:16:07;102000.00;;;20.81;40.87
29417;BME280;28421;51.030;4.006;2023-05-20T12:18:32;101985.28;;;20.89;43.13
29417;BME280;28421;51.030;4.006;2023-05-20T12:20:58;101964.84;;;20.98;42.69
29417;BME280;28421;51.030;4.006;2023-05-20T12:23:24;101968.63;;;21.10;41.70
29417;BME280;28421;51.030;4.006;2023-05-20T12:25:50;101970.78;;;20.89;40.16
29417;BME280;28421;51.030;4.006;2023-05-20T12:28:16;101987.91;;;21.42;41.64
29417;BME280;28421;51.030;4.006;2023-05-20T12:30:42;101980.53;;;21.43;41.46
29417;BME280;28421;51.030;4.006;2023-05-20T12:33:08;101979.31;;;21.77;40.19
29417;BME280;28421;51.030;4.006;2023-05-20T12:35:41;101952.50;;;21.54;40.75
29417;BME280;28421;51.030;4.006;2023-05-20T12:38:07;101952.81;;;21.77;41.91
29417;BME280;28421;51.030;4.006;2023-05-20T12:40:33;101969.03;;;21.72;41.49
29417;BME280;28421;51.030;4.006;2023-05-20T12:43:00;101924.38;;;21.33;39.57
29417;BME280;28421;51.030;4.006;2023-05-20T12:45:26;101975.78;;;21.70;41.53
29417;BME280;28421;51.030;4.006;2023-05-20T12:47:53;101954.34;;;21.98;40.71
29417;BME280;28421;51.030;4.006;2023-05-20T12:50:18;101983.28;;;21.81;39.74
29417;BME280;28421;51.030;4.006;2023-05-20T12:52:44;101923.47;;;21.46;40.39
29417;BME280;28421;51.030;4.006;2023-05-20T12:55:10;101966.25;;;22.17;40.68